Time;durP1;ratioP1;P1;durP2;ratioP2;P2;SDS_P1;SDS_P2;PMS_P1;PMS_P2;Temp;Humidity;BMP_temperature;BMP_pressure;BME280_temperature;BME280_humidity;BME280_pressure;Samples;Min_cycle;Max_cycle;Signal;HPM_P1;HPM_P2
2023/09/24 00:01:21;;;;;;;1.02;0.40;;;12.10;99.90;;;;;;6215426;23;20017;-83
2023/09/24 00:03:47;;;;;;;2.70;1.15;;;12.10;99.90;;;;;;6215048;23;20029;-83
2023/09/24 00:06:14;;;;;;;2.90;2.35;;;11.90;99.90;;;;;;6189027;23;20400;-84
2023/09/24 00:08:40;;;;;;;2.45;2.25;;;12.00;99.90;;;;;;6188283;23;20066;-83
2023/09/24 00:11:07;;;;;;;1.67;0.55;;;12.10;99.90;;;;;;6163798;23;20047;-83
2023/09/24 00:13:34;;;;;;;0.90;0.47;;;12.10;99.90;;;;;;6163988;23;20023;-83
2023/09/24 00:16:06;;;;;;;6.13;5.68;;;12.10;99.90;;;;;;6217066;23;20035;-83
2023/09/24 00:18:35;;;;;;;2.88;1.40;;;12.10;99.90;;;;;;6190107;23;20086;-84
2023/09/24 00:21:02;;;;;;;11.63;10.65;;;12.70;99.90;;;;;;6189775;23;20021;-84
2023/09/24 00:23:30;;;;;;;6.20;5.65;;;12.10;99.90;;;;;;6216887;23;20078;-83
2023/09/24 00:25:57;;;;;;;3.33;3.13;;;12.10;99.90;;;;;;6190563;23;20016;-83
2023/09/24 00:28:26;;;;;;;4.50;0.50;;;12.10;99.90;;;;;;6216453;23;20023;-83
2023/09/24 00:30:52;;;;;;;2.80;0.50;;;12.20;99.90;;;;;;6164986;23;20428;-84
2023/09/24 00:33:18;;;;;;;3.72;0.43;;;12.10;99.90;;;;;;6216872;23;20091;-83
2023/09/24 00:35:44;;;;;;;2.13;0.77;;;12.20;99.90;;;;;;6190051;23;20016;-84
2023/09/24 00:38:10;;;;;;;3.75;3.42;;;12.10;99.90;;;;;;6189691;23;20009;-83
2023/09/24 00:40:36;;;;;;;10.70;9.95;;;12.10;99.90;;;;;;6190018;23;20071;-84
2023/09/24 00:43:02;;;;;;;3.17;2.88;;;12.10;99.90;;;;;;6216586;23;20020;-83
2023/09/24 00:45:28;;;;;;;6.85;6.28;;;12.10;99.90;;;;;;6216838;23;20012;-86
2023/09/24 00:47:57;;;;;;;8.13;7.28;;;12.10;99.90;;;;;;6190166;23;20023;-83
2023/09/24 00:50:33;;;;;;;2.65;0.70;;;12.40;99.90;;;;;;6189868;23;20021;-84
2023/09/24 00:52:59;;;;;;;3.60;3.20;;;11.90;99.90;;;;;;6216812;23;20012;-83
2023/09/24 00:55:29;;;;;;;1.00;0.43;;;12.80;99.90;;;;;;6216754;23;20091;-84
2023/09/24 00:57:55;;;;;;;3.60;0.75;;;11.90;99.90;;;;;;6216119;23;20084;-84
2023/09/24 01:00:22;;;;;;;2.20;1.85;;;11.90;99.90;;;;;;6216436;23;20028;-84
2023/09/24 01:02:50;;;;;;;2.85;2.70;;;12.30;99.90;;;;;;6216136;23;20020;-84
2023/09/24 01:05:16;;;;;;;2.17;0.45;;;11.80;99.90;;;;;;6164668;23;20017;-84
2023/09/24 01:07:42;;;;;;;3.70;0.80;;;11.80;99.90;;;;;;6165105;23;20027;-84
2023/09/24 01:10:11;;;;;;;3.28;3.08;;;11.80;99.90;;;;;;6164569;23;20016;-84
2023/09/24 01:12:39;;;;;;;2.50;0.63;;;12.20;99.90;;;;;;6164700;23;20387;-84
2023/09/24 01:15:13;;;;;;;5.68;0.70;;;11.80;99.90;;;;;;6216391;23;20013;-84
2023/09/24 01:17:39;;;;;;;1.02;0.70;;;11.70;99.90;;;;;;6164299;23;20013;-86
2023/09/24 01:20:13;;;;;;;2.33;0.45;;;11.70;99.90;;;;;;6189678;23;20094;-85
2023/09/24 01:22:40;;;;;;;1.05;0.95;;;11.70;99.90;;;;;;6164529;23;20050;-85
2023/09/24 01:25:06;;;;;;;6.13;4.72;;;11.90;99.90;;;;;;6189489;23;20027;-84
2023/09/24 01:27:35;;;;;;;5.18;4.78;;;11.60;99.90;;;;;;6189213;23;20448;-84
2023/09/24 01:30:01;;;;;;;5.22;4.95;;;11.60;99.90;;;;;;6189604;23;20439;-83
2023/09/24 01:32:27;;;;;;;2.83;0.60;;;11.60;99.90;;;;;;6188552;23;20021;-83
2023/09/24 01:34:54;;;;;;;73.28;69.25;;;12.10;99.90;;;;;;6189353;23;20052;-84
2023/09/24 01:37:21;;;;;;;16.67;15.25;;;11.50;99.90;;;;;;6188907;23;20452;-84
2023/09/24 01:39:47;;;;;;;4.40;3.95;;;11.60;99.90;;;;;;6215775;23;20384;-84
2023/09/24 01:42:13;;;;;;;6.32;5.60;;;11.60;99.90;;;;;;6188771;23;20024;-85
2023/09/24 01:44:42;;;;;;;25.80;24.27;;;11.50;99.90;;;;;;6164001;23;20020;-84
2023/09/24 01:47:08;;;;;;;76.85;71.38;;;11.50;99.90;;;;;;6214414;23;20186;-84
2023/09/24 01:49:34;;;;;;;110.93;103.72;;;12.20;99.90;;;;;;6189269;23;20020;-84
2023/09/24 01:51:59;;;;;;;2.70;2.40;;;11.30;99.90;;;;;;6215543;23;20039;-84
2023/09/24 01:54:25;;;;;;;11.48;10.88;;;11.20;99.90;;;;;;6189497;23;20013;-83
2023/09/24 01:56:54;;;;;;;66.63;62.22;;;11.20;99.90;;;;;;6202719;23;20406;-84
2023/09/24 01:59:20;;;;;;;15.88;14.82;;;11.70;99.90;;;;;;6245768;23;20027;-85
2023/09/24 02:01:45;;;;;;;5.53;5.13;;;11.10;99.90;;;;;;6244254;23;20016;-83
2023/09/24 02:04:11;;;;;;;2.17;1.75;;;11.30;99.90;;;;;;6244281;23;20016;-84
2023/09/24 02:06:37;;;;;;;2.17;1.48;;;11.00;99.90;;;;;;6244621;23;20092;-84
2023/09/24 02:09:03;;;;;;;5.93;1.00;;;11.00;99.90;;;;;;6245467;23;20062;-84
2023/09/24 02:11:29;;;;;;;6.43;6.05;;;10.80;99.90;;;;;;6246283;22;20020;-84
2023/09/24 02:13:55;;;;;;;5.28;4.60;;;11.00;99.90;;;;;;6245784;23;20012;-84
2023/09/24 02:16:21;;;;;;;29.40;26.90;;;10.80;99.90;;;;;;6243972;23;20070;-84
2023/09/24 02:18:47;;;;;;;290.30;271.30;;;10.80;99.90;;;;;;6218772;23;20051;-83
2023/09/24 02:21:14;;;;;;;632.55;382.45;;;11.30;99.90;;;;;;6269632;22;20020;-84
2023/09/24 02:23:44;;;;;;;702.15;501.05;;;11.30;99.90;;;;;;6244033;23;20415;-84
2023/09/24 02:26:13;;;;;;;406.75;371.08;;;10.90;99.90;;;;;;6245842;23;20016;-85
2023/09/24 02:28:39;;;;;;;1008.08;470.58;;;10.60;99.90;;;;;;6246049;22;20087;-83
2023/09/24 02:31:12;;;;;;;809.03;515.60;;;10.60;99.90;;;;;;6244275;23;20302;-84
2023/09/24 02:33:38;;;;;;;1003.38;525.33;;;10.50;99.90;;;;;;6244128;23;20455;-84
2023/09/24 02:36:08;;;;;;;1200.73;551.90;;;11.10;99.90;;;;;;6243616;23;20020;-84
2023/09/24 02:38:34;;;;;;;961.65;552.60;;;10.50;99.90;;;;;;6243783;23;20449;-84
2023/09/24 02:41:00;;;;;;;886.15;540.08;;;10.90;99.90;;;;;;6245993;22;20339;-83
2023/09/24 02:43:27;;;;;;;913.63;543.25;;;10.40;99.90;;;;;;6218611;23;20480;-85
2023/09/24 02:45:53;;;;;;;796.97;529.33;;;10.70;99.90;;;;;;6245610;22;20023;-84
2023/09/24 02:48:19;;;;;;;839.75;529.55;;;10.40;99.90;;;;;;6243735;23;20020;-84
2023/09/24 02:50:44;;;;;;;695.15;386.27;;;10.70;99.90;;;;;;6243922;23;20047;-84
2023/09/24 02:53:10;;;;;;;645.88;378.83;;;10.20;99.90;;;;;;6245128;22;20458;-84
2023/09/24 02:55:36;;;;;;;594.00;370.45;;;10.30;99.90;;;;;;6243595;23;20020;-83
2023/09/24 02:58:05;;;;;;;645.60;514.35;;;10.30;99.90;;;;;;6243712;23;20077;-83
2023/09/24 03:00:42;;;;;;;726.55;528.53;;;10.30;99.90;;;;;;6243755;23;20063;-83
2023/09/24 03:03:15;;;;;;;658.60;379.42;;;10.90;99.90;;;;;;6245898;22;20018;-84
2023/09/24 03:05:41;;;;;;;786.63;514.60;;;10.20;99.90;;;;;;6246054;22;20390;-83
2023/09/24 03:08:09;;;;;;;782.35;405.60;;;10.20;99.90;;;;;;6243854;23;20021;-84
2023/09/24 03:10:36;;;;;;;872.45;519.38;;;10.40;99.90;;;;;;6219074;23;20016;-84
2023/09/24 03:13:06;;;;;;;842.80;520.95;;;10.00;99.90;;;;;;6243618;23;20401;-83
2023/09/24 03:15:33;;;;;;;822.75;511.33;;;10.40;99.90;;;;;;6244313;23;20031;-85
2023/09/24 03:17:59;;;;;;;824.35;525.47;;;10.10;99.90;;;;;;6243715;23;20440;-83
2023/09/24 03:20:26;;;;;;;771.42;513.45;;;10.00;99.90;;;;;;6244143;23;20074;-84
2023/09/24 03:22:58;;;;;;;650.17;377.10;;;10.40;99.90;;;;;;6245624;22;20012;-84
2023/09/24 03:25:25;;;;;;;695.17;506.23;;;10.30;99.90;;;;;;6218498;23;20433;-83
2023/09/24 03:27:53;;;;;;;573.53;359.42;;;10.20;99.90;;;;;;6245767;22;20070;-83
2023/09/24 03:30:19;;;;;;;585.80;357.48;;;10.60;99.90;;;;;;6244146;23;20051;-83
2023/09/24 03:32:46;;;;;;;613.05;367.50;;;10.00;99.90;;;;;;6243702;23;20016;-83
2023/09/24 03:35:13;;;;;;;580.95;360.58;;;10.60;99.90;;;;;;6245516;22;20099;-84
2023/09/24 03:37:43;;;;;;;673.75;511.77;;;10.50;99.90;;;;;;6245235;22;20060;-83
2023/09/24 03:40:14;;;;;;;556.28;355.05;;;10.10;99.90;;;;;;6245724;22;20024;-84
2023/09/24 03:42:40;;;;;;;353.85;311.23;;;10.10;99.90;;;;;;6218904;23;20047;-82
2023/09/24 03:45:11;;;;;;;361.55;312.15;;;10.10;99.90;;;;;;6218687;23;20067;-84
2023/09/24 03:47:38;;;;;;;205.27;195.70;;;10.10;99.90;;;;;;6246542;22;20020;-82
2023/09/24 03:50:13;;;;;;;504.33;467.58;;;10.20;99.90;;;;;;6246277;23;20324;-83
2023/09/24 03:52:43;;;;;;;477.38;441.17;;;10.20;99.90;;;;;;6220733;23;20016;-83
2023/09/24 03:55:10;;;;;;;533.55;479.10;;;10.60;99.90;;;;;;6245591;23;20027;-85
2023/09/24 03:57:36;;;;;;;513.70;476.20;;;10.20;99.90;;;;;;6245639;23;20023;-82
2023/09/24 04:00:09;;;;;;;627.28;499.80;;;10.70;99.90;;;;;;6246033;23;20024;-82
2023/09/24 04:02:35;;;;;;;705.50;492.92;;;10.30;99.90;;;;;;6246865;23;20094;-83
2023/09/24 04:05:00;;;;;;;719.83;506.45;;;10.20;99.90;;;;;;6247961;23;20031;-83
2023/09/24 04:07:27;;;;;;;485.63;336.27;;;10.30;99.90;;;;;;6245831;23;20012;-83
2023/09/24 04:09:54;;;;;;;574.75;498.60;;;10.30;99.90;;;;;;6247751;22;20016;-82
2023/09/24 04:12:22;;;;;;;521.45;351.30;;;10.30;99.90;;;;;;6246239;23;20055;-82
2023/09/24 04:14:52;;;;;;;550.88;357.45;;;10.40;99.90;;;;;;6245623;23;20016;-83
2023/09/24 04:17:18;;;;;;;560.50;358.92;;;10.50;99.90;;;;;;6248065;22;20091;-83
2023/09/24 04:19:43;;;;;;;560.20;356.88;;;10.80;99.90;;;;;;6247636;23;20011;-83
2023/09/24 04:22:09;;;;;;;627.25;503.90;;;10.40;99.90;;;;;;6248911;22;20019;-83
2023/09/24 04:24:36;;;;;;;510.63;348.17;;;10.50;99.90;;;;;;6248878;22;20051;-82
2023/09/24 04:27:02;;;;;;;565.83;506.13;;;10.40;99.90;;;;;;6246766;23;20020;-83
2023/09/24 04:29:27;;;;;;;454.92;333.48;;;10.40;99.90;;;;;;6247059;23;20339;-82
2023/09/24 04:31:53;;;;;;;570.75;503.73;;;11.00;99.90;;;;;;6221729;23;20490;-82
2023/09/24 04:34:19;;;;;;;576.58;504.60;;;10.30;99.90;;;;;;6247684;23;20013;-83
2023/09/24 04:36:45;;;;;;;483.63;338.88;;;10.30;99.90;;;;;;6249483;22;20450;-82
2023/09/24 04:39:11;;;;;;;601.00;503.55;;;10.30;99.90;;;;;;6223139;23;20031;-82
2023/09/24 04:41:42;;;;;;;445.67;328.92;;;10.10;99.90;;;;;;6249498;22;20020;-83
2023/09/24 04:44:08;;;;;;;556.17;496.52;;;10.20;99.90;;;;;;6249860;22;20103;-82
2023/09/24 04:46:35;;;;;;;342.02;305.50;;;10.20;99.90;;;;;;6248632;23;20020;-81
2023/09/24 04:49:05;;;;;;;333.27;299.70;;;10.10;99.90;;;;;;6249062;23;20521;-82
2023/09/24 04:51:32;;;;;;;539.78;489.25;;;10.10;99.90;;;;;;6248950;23;20064;-82
2023/09/24 04:54:00;;;;;;;355.50;311.63;;;10.10;99.90;;;;;;6249774;23;20091;-82
2023/09/24 04:56:28;;;;;;;353.55;309.02;;;10.40;99.90;;;;;;6219797;23;20833;-82
2023/09/24 04:58:54;;;;;;;535.45;484.35;;;10.00;99.90;;;;;;6220228;23;20517;-81
2023/09/24 05:01:20;;;;;;;324.48;292.98;;;9.90;99.90;;;;;;6192822;23;20016;-81
2023/09/24 05:03:49;;;;;;;513.60;472.40;;;10.70;99.90;;;;;;6193116;23;20100;-82
2023/09/24 05:06:16;;;;;;;287.17;265.27;;;9.90;99.90;;;;;;6195009;23;20064;-82
2023/09/24 05:08:42;;;;;;;475.98;443.48;;;9.40;99.90;;;;;;6219810;23;20019;-82
2023/09/24 05:11:12;;;;;;;459.33;429.25;;;9.90;99.90;;;;;;6221545;23;20047;-81
2023/09/24 05:13:38;;;;;;;437.30;410.48;;;9.80;99.90;;;;;;6222967;23;20020;-82
2023/09/24 05:16:04;;;;;;;236.80;221.32;;;9.80;99.90;;;;;;6222914;23;20027;-81
2023/09/24 05:18:33;;;;;;;239.30;224.05;;;9.80;99.90;;;;;;6197001;23;20019;-82
2023/09/24 05:20:58;;;;;;;247.70;231.73;;;9.80;99.90;;;;;;6198024;23;20015;-81
2023/09/24 05:23:25;;;;;;;547.97;489.63;;;9.80;99.90;;;;;;6172130;23;20036;-82
2023/09/24 05:25:53;;;;;;;544.42;348.10;;;9.80;99.90;;;;;;6223386;23;20017;-82
2023/09/24 05:28:19;;;;;;;571.53;355.38;;;10.40;99.90;;;;;;6195726;23;20063;-82
2023/09/24 05:30:55;;;;;;;503.80;336.10;;;9.70;99.90;;;;;;6220764;23;20366;-83
2023/09/24 05:33:21;;;;;;;;;;;9.70;99.90;;;;;;6170375;23;20017;-82
2023/09/24 05:35:51;;;;;;;555.72;344.63;;;9.80;99.90;;;;;;6221701;23;19939;-82
2023/09/24 05:38:17;;;;;;;496.38;333.73;;;10.50;99.90;;;;;;6174203;23;20107;-83
2023/09/24 05:40:43;;;;;;;600.33;485.83;;;9.70;99.90;;;;;;6200810;23;20016;-82
2023/09/24 05:43:09;;;;;;;486.67;331.17;;;9.70;99.90;;;;;;6224298;23;20017;-82
2023/09/24 05:45:35;;;;;;;556.10;348.33;;;9.70;99.90;;;;;;6223264;23;20028;-82
2023/09/24 05:48:01;;;;;;;559.83;353.60;;;10.20;99.90;;;;;;6171447;23;20017;-82
2023/09/24 05:50:27;;;;;;;570.97;354.27;;;9.80;99.90;;;;;;6190877;23;20074;-82
2023/09/24 05:52:52;;;;;;;649.20;494.02;;;9.50;99.90;;;;;;6216250;23;20017;-81
2023/09/24 05:55:19;;;;;;;571.63;352.95;;;9.80;99.90;;;;;;6216317;23;20047;-81
2023/09/24 05:57:44;;;;;;;575.33;354.52;;;9.80;99.90;;;;;;6216358;23;20021;-81
2023/09/24 06:00:11;;;;;;;677.00;480.70;;;9.80;99.90;;;;;;6188989;23;20028;-81
2023/09/24 06:02:38;;;;;;;647.25;498.10;;;9.80;99.90;;;;;;6189102;23;20017;-83
2023/09/24 06:05:06;;;;;;;633.10;500.67;;;9.80;99.90;;;;;;6215464;23;20012;-82
2023/09/24 06:07:32;;;;;;;611.58;496.05;;;9.90;99.90;;;;;;6215383;23;20017;-83
2023/09/24 06:10:04;;;;;;;531.60;349.58;;;9.90;99.90;;;;;;6215761;23;20019;-82
2023/09/24 06:12:31;;;;;;;611.45;498.15;;;9.90;99.90;;;;;;6215206;23;20016;-82
2023/09/24 06:14:57;;;;;;;595.97;495.92;;;10.00;99.90;;;;;;6164085;23;20017;-83
2023/09/24 06:17:22;;;;;;;502.38;341.98;;;10.00;99.90;;;;;;6215425;23;20047;-82
2023/09/24 06:19:48;;;;;;;497.38;337.88;;;10.10;99.90;;;;;;6215561;23;20015;-82
2023/09/24 06:22:14;;;;;;;594.00;503.83;;;10.10;99.90;;;;;;6188750;23;20016;-82
2023/09/24 06:24:39;;;;;;;461.65;332.88;;;10.20;99.90;;;;;;6215488;23;20084;-82
2023/09/24 06:27:05;;;;;;;565.03;501.35;;;10.20;99.90;;;;;;6215332;23;20048;-83
2023/09/24 06:29:35;;;;;;;559.60;501.00;;;10.80;99.90;;;;;;6189262;23;20031;-82
2023/09/24 06:32:00;;;;;;;554.70;497.15;;;10.30;99.90;;;;;;6187743;23;20370;-81
2023/09/24 06:34:26;;;;;;;564.38;504.60;;;10.40;99.90;;;;;;6215274;23;20055;-82
2023/09/24 06:36:52;;;;;;;561.42;504.75;;;10.50;99.90;;;;;;6188996;23;20044;-84
2023/09/24 06:39:18;;;;;;;404.77;322.30;;;10.90;99.90;;;;;;6215164;23;20028;-82
2023/09/24 06:41:44;;;;;;;453.95;337.27;;;10.90;99.90;;;;;;6215906;23;20064;-81
2023/09/24 06:44:11;;;;;;;465.10;342.58;;;10.80;99.90;;;;;;6213829;23;20048;-82
2023/09/24 06:46:36;;;;;;;454.33;338.67;;;11.00;99.90;;;;;;6165124;23;20017;-82
2023/09/24 06:49:02;;;;;;;599.85;523.17;;;10.70;99.90;;;;;;6164587;23;20049;-82
2023/09/24 06:51:29;;;;;;;670.42;524.72;;;11.20;99.90;;;;;;6216360;23;20016;-83
2023/09/24 06:53:55;;;;;;;666.08;525.72;;;11.70;99.90;;;;;;6190317;23;20020;-82
2023/09/24 06:56:21;;;;;;;624.53;382.27;;;11.40;99.90;;;;;;6188921;23;20054;-82
2023/09/24 06:58:47;;;;;;;629.35;385.77;;;11.60;99.90;;;;;;6215888;23;20020;-81
2023/09/24 07:01:13;;;;;;;757.70;533.80;;;11.80;99.90;;;;;;6215839;23;20028;-81
2023/09/24 07:03:38;;;;;;;759.50;544.95;;;12.50;99.90;;;;;;6189711;23;20009;-82
2023/09/24 07:06:06;;;;;;;785.30;554.20;;;11.90;99.90;;;;;;6190014;23;20028;-80
2023/09/24 07:08:38;;;;;;;692.97;401.30;;;12.00;99.90;;;;;;6191097;23;20017;-81
2023/09/24 07:11:30;;;;;;;774.90;546.15;;;12.20;99.90;;;;;;6216063;23;20035;-80
2023/09/24 07:13:56;;;;;;;671.97;394.00;;;12.30;99.90;;;;;;6188549;23;20013;-82
2023/09/24 07:16:23;;;;;;;672.72;395.17;;;12.80;99.90;;;;;;6215989;23;20498;-82
2023/09/24 07:18:50;;;;;;;752.85;555.25;;;12.50;99.90;;;;;;6188553;23;20335;-82
2023/09/24 07:21:21;;;;;;;727.80;574.08;;;12.60;99.90;;;;;;6188471;23;20016;-83
2023/09/24 07:23:47;;;;;;;616.97;395.10;;;12.10;99.90;;;;;;6216908;23;20012;-83
2023/09/24 07:26:16;;;;;;;581.00;390.08;;;12.90;99.90;;;;;;6217163;23;20017;-82
2023/09/24 07:28:42;;;;;;;563.33;389.15;;;13.00;99.90;;;;;;6217690;23;20328;-83
2023/09/24 07:31:25;;;;;;;577.40;391.55;;;13.10;99.90;;;;;;6216153;23;20071;-83
2023/09/24 07:33:55;;;;;;;571.55;387.95;;;13.20;99.90;;;;;;6190318;23;20578;-83
2023/09/24 07:36:22;;;;;;;553.25;390.52;;;13.50;99.90;;;;;;6217218;23;20406;-82
2023/09/24 07:38:51;;;;;;;665.00;585.40;;;13.30;99.90;;;;;;6216812;23;20392;-83
2023/09/24 07:41:18;;;;;;;667.17;590.78;;;13.90;99.90;;;;;;6190439;23;20020;-84
2023/09/24 07:43:44;;;;;;;550.42;392.42;;;13.90;99.90;;;;;;6190439;23;20016;-82
2023/09/24 07:46:12;;;;;;;662.35;589.72;;;13.80;99.90;;;;;;6216905;23;20012;-85
2023/09/24 07:48:39;;;;;;;524.72;391.25;;;13.70;99.90;;;;;;6216736;23;20020;-83
2023/09/24 07:51:05;;;;;;;526.28;392.23;;;13.80;99.90;;;;;;6190511;23;20017;-83
2023/09/24 07:53:31;;;;;;;650.05;581.58;;;13.90;99.90;;;;;;6217085;23;20078;-83
2023/09/24 07:56:02;;;;;;;514.00;391.42;;;14.00;99.90;;;;;;6189813;23;20079;-84
2023/09/24 07:58:30;;;;;;;522.83;395.50;;;14.10;99.90;;;;;;6243978;23;20473;-84
2023/09/24 08:01:04;;;;;;;676.05;604.83;;;14.20;99.90;;;;;;6247144;22;20073;-82
2023/09/24 08:03:30;;;;;;;520.63;396.80;;;14.30;99.90;;;;;;6245604;23;20027;-83
2023/09/24 08:05:56;;;;;;;35.55;33.05;;;14.20;99.90;;;;;;6245844;23;20020;-83
2023/09/24 08:08:23;;;;;;;5.13;2.78;;;14.80;99.90;;;;;;6246862;22;20019;-83
2023/09/24 08:10:50;;;;;;;2.88;1.20;;;14.40;99.90;;;;;;6247172;22;20091;-83
2023/09/24 08:13:18;;;;;;;3.17;0.93;;;14.50;99.90;;;;;;6247304;22;20012;-83
2023/09/24 08:15:43;;;;;;;4.32;2.88;;;14.50;99.90;;;;;;6247159;22;20529;-83
2023/09/24 08:18:11;;;;;;;7.43;1.30;;;14.60;99.90;;;;;;6246811;23;20084;-83
2023/09/24 08:20:36;;;;;;;3.60;2.13;;;14.90;99.90;;;;;;6247203;22;20052;-83
2023/09/24 08:23:03;;;;;;;3.95;0.93;;;14.70;99.90;;;;;;6246780;23;20067;-84
2023/09/24 08:25:30;;;;;;;3.17;1.65;;;14.80;99.90;;;;;;6245803;23;20025;-83
2023/09/24 08:27:55;;;;;;;5.50;1.10;;;14.90;99.90;;;;;;6246851;22;20520;-83
2023/09/24 08:30:21;;;;;;;3.20;0.93;;;15.40;99.90;;;;;;6247060;23;20027;-83
2023/09/24 08:32:47;;;;;;;5.18;2.53;;;15.00;99.90;;;;;;6246638;23;20320;-83
2023/09/24 08:35:13;;;;;;;4.97;3.63;;;15.20;99.90;;;;;;6244324;23;20016;-84
2023/09/24 08:37:38;;;;;;;6.43;5.57;;;15.30;99.90;;;;;;6247067;23;20048;-83
2023/09/24 08:40:06;;;;;;;5.70;1.60;;;15.30;99.90;;;;;;6245154;23;20389;-82
2023/09/24 08:42:32;;;;;;;6.68;4.90;;;15.40;99.90;;;;;;6245362;23;20016;-82
2023/09/24 08:45:11;;;;;;;3.78;1.98;;;15.40;99.90;;;;;;6245086;23;20061;-90
2023/09/24 08:47:38;;;;;;;7.55;6.95;;;15.50;99.90;;;;;;6247176;22;20331;-84
2023/09/24 08:50:06;;;;;;;3.17;2.63;;;15.60;99.90;;;;;;6245212;23;20023;-85
2023/09/24 08:52:37;;;;;;;16.85;15.15;;;15.70;99.90;;;;;;6245082;23;20480;-83
2023/09/24 08:55:09;;;;;;;6.05;5.53;;;15.80;99.90;;;;;;6245036;23;20016;-85
2023/09/24 08:57:38;;;;;;;8.13;7.55;;;15.90;99.90;;;;;;6245945;23;20100;-83
2023/09/24 09:00:06;;;;;;;160.27;148.38;;;16.00;99.90;;;;;;6247032;22;20020;-85
2023/09/24 09:02:32;;;;;;;249.00;236.05;;;16.00;99.90;;;;;;6246650;22;20455;-84
2023/09/24 09:04:58;;;;;;;356.08;336.23;;;16.10;99.90;;;;;;6244998;23;20012;-82
2023/09/24 09:07:24;;;;;;;462.00;419.38;;;16.20;99.90;;;;;;6245161;23;20058;-82
2023/09/24 09:09:54;;;;;;;651.97;474.60;;;16.30;99.90;;;;;;6244672;23;20099;-82
2023/09/24 09:12:22;;;;;;;1012.63;714.72;;;16.40;99.90;;;;;;6246905;22;20062;-81
2023/09/24 09:14:48;;;;;;;998.90;722.42;;;16.50;99.90;;;;;;6246455;22;20016;-84
2023/09/24 09:17:13;;;;;;;903.42;501.42;;;16.60;99.90;;;;;;6246674;22;20031;-85
2023/09/24 09:19:53;;;;;;;981.65;740.40;;;16.80;99.90;;;;;;6245872;23;20026;-82
2023/09/24 09:22:24;;;;;;;743.85;491.83;;;16.90;99.90;;;;;;6244217;23;20035;-81
2023/09/24 09:25:06;;;;;;;702.97;487.30;;;17.10;99.90;;;;;;6246088;22;20016;-85
2023/09/24 09:27:37;;;;;;;703.13;487.88;;;17.10;99.90;;;;;;6242049;23;20470;-81
2023/09/24 09:30:19;;;;;;;693.20;493.27;;;17.20;99.90;;;;;;6245500;22;20459;-82
2023/09/24 09:32:47;;;;;;;850.20;747.10;;;17.20;99.90;;;;;;6244030;23;20016;-89
2023/09/24 09:35:14;;;;;;;651.13;484.20;;;17.40;99.90;;;;;;6244222;23;20020;-83
2023/09/24 09:37:42;;;;;;;593.55;496.33;;;17.50;99.90;;;;;;6241870;23;20020;-80
2023/09/24 09:40:09;;;;;;;843.65;764.40;;;17.50;99.90;;;;;;6246160;22;20012;-82
2023/09/24 09:42:37;;;;;;;625.60;507.80;;;17.60;99.90;;;;;;6245011;22;20016;-81
2023/09/24 09:45:07;;;;;;;626.65;492.25;;;17.70;99.90;;;;;;6243378;23;20072;-81
2023/09/24 09:47:34;;;;;;;703.85;517.80;;;17.80;99.90;;;;;;6245784;22;20012;-82
2023/09/24 09:50:01;;;;;;;1018.83;760.53;;;17.90;99.90;;;;;;6245057;22;20074;-81
2023/09/24 09:52:42;;;;;;;900.42;540.97;;;18.00;99.90;;;;;;6218393;23;20497;-82
2023/09/24 09:55:09;;;;;;;1136.22;741.53;;;18.10;99.90;;;;;;6243799;23;20020;-82
2023/09/24 09:57:35;;;;;;;1243.13;775.70;;;18.10;99.90;;;;;;6226179;22;20023;-83
2023/09/24 10:00:05;;;;;;;1137.72;576.08;;;18.20;99.90;;;;;;6214574;23;20123;-82
2023/09/24 10:02:32;;;;;;;1323.70;754.30;;;18.10;99.90;;;;;;6215524;23;20028;-84
2023/09/24 10:05:00;;;;;;;1335.72;758.60;;;18.20;99.90;;;;;;6216049;23;20016;-86
2023/09/24 10:07:28;;;;;;;1334.65;760.83;;;18.30;99.90;;;;;;6187570;23;20387;-82
2023/09/24 10:09:54;;;;;;;1342.68;761.38;;;18.40;99.90;;;;;;6188041;23;20042;-83
2023/09/24 10:12:36;;;;;;;1371.78;748.22;;;18.50;99.90;;;;;;6215629;23;20092;-85
2023/09/24 10:15:25;;;;;;;1310.45;576.65;;;18.50;99.90;;;;;;6187828;23;20074;-82
2023/09/24 10:18:09;;;;;;;1449.07;761.35;;;18.60;99.90;;;;;;6188375;23;20070;-85
2023/09/24 10:21:05;;;;;;;1439.95;755.15;;;18.70;99.90;;;;;;6214920;23;20017;-80
2023/09/24 10:23:31;;;;;;;1418.35;589.10;;;18.90;99.90;;;;;;6065082;23;20027;-84
2023/09/24 10:26:02;;;;;;;1486.88;764.40;;;18.90;99.90;;;;;;6065069;23;20067;-81
2023/09/24 10:28:51;;;;;;;1497.00;773.23;;;18.90;99.90;;;;;;6065094;23;20022;-80
2023/09/24 10:31:20;;;;;;;1421.97;589.90;;;19.00;99.90;;;;;;6007653;23;20020;-81
2023/09/24 10:34:02;;;;;;;1412.88;586.20;;;19.10;99.90;;;;;;6008118;23;20095;-80
2023/09/24 10:36:33;;;;;;;1495.15;770.92;;;19.10;99.90;;;;;;5984695;23;20023;-82
2023/09/24 10:39:11;;;;;;;1476.05;607.47;;;19.30;99.90;;;;;;6007223;23;20442;-86
2023/09/24 10:42:09;;;;;;;1496.17;772.23;;;19.30;99.90;;;;;;6008380;23;20019;-80
2023/09/24 10:44:35;;;;;;;1454.82;598.28;;;19.30;99.90;;;;;;6007877;23;20024;-81
2023/09/24 10:47:26;;;;;;;1493.88;773.63;;;19.30;99.90;;;;;;6007898;23;20015;-79
2023/09/24 10:50:13;;;;;;;1424.20;595.70;;;19.40;99.90;;;;;;5984150;23;20028;-79
2023/09/24 10:52:59;;;;;;;1493.30;783.65;;;19.50;99.90;;;;;;5984405;23;20355;-82
2023/09/24 10:55:33;;;;;;;1483.85;766.15;;;19.50;99.90;;;;;;5984526;23;20020;-81
2023/09/24 10:58:05;;;;;;;1412.90;596.65;;;19.60;99.90;;;;;;6029742;23;20023;-83
2023/09/24 11:00:34;;;;;;;1428.00;595.45;;;19.70;99.90;;;;;;6123943;23;20028;-80
2023/09/24 11:03:05;;;;;;;1496.27;783.43;;;19.70;99.90;;;;;;6152646;23;20014;-81
2023/09/24 11:05:49;;;;;;;1482.10;783.30;;;19.80;99.90;;;;;;6127668;23;20362;-81
2023/09/24 11:08:23;;;;;;;1126.15;589.63;;;19.80;99.90;;;;;;6182620;23;20035;-81
2023/09/24 11:10:50;;;;;;;889.75;809.83;;;19.90;99.90;;;;;;6214822;23;20147;-81
2023/09/24 11:13:16;;;;;;;887.75;811.08;;;19.90;99.90;;;;;;6163496;23;20151;-83
2023/09/24 11:15:42;;;;;;;600.05;536.90;;;19.70;99.90;;;;;;6214917;23;20021;-82
2023/09/24 11:18:11;;;;;;;886.10;812.20;;;19.80;99.90;;;;;;6214904;23;20051;-80
2023/09/24 11:20:36;;;;;;;885.97;808.25;;;19.90;99.90;;;;;;6188637;23;20021;-80
2023/09/24 11:23:11;;;;;;;875.55;806.35;;;19.90;99.90;;;;;;6215045;23;20486;-82
2023/09/24 11:25:45;;;;;;;1017.28;942.25;;;20.00;99.90;;;;;;6215097;23;20020;-81
2023/09/24 11:28:11;;;;;;;512.03;479.65;;;20.00;99.90;;;;;;6188278;23;20399;-80
2023/09/24 11:30:49;;;;;;;1071.30;803.33;;;20.00;99.90;;;;;;6215011;23;20016;-82
2023/09/24 11:33:18;;;;;;;1003.90;580.55;;;20.10;99.90;;;;;;6214825;23;20451;-80
2023/09/24 11:35:44;;;;;;;506.55;473.63;;;20.10;99.90;;;;;;6214813;23;20024;-82
2023/09/24 11:38:11;;;;;;;533.40;492.80;;;20.20;99.90;;;;;;6214997;23;20079;-82
2023/09/24 11:40:38;;;;;;;522.45;484.45;;;20.20;99.90;;;;;;6214709;23;20390;-81
2023/09/24 11:43:15;;;;;;;623.00;558.53;;;20.30;99.90;;;;;;6188254;23;20017;-81
2023/09/24 11:45:48;;;;;;;874.95;809.55;;;20.40;99.90;;;;;;6215193;23;20027;-87
2023/09/24 11:48:25;;;;;;;467.33;441.13;;;20.50;99.90;;;;;;6214484;23;20020;-82
2023/09/24 11:51:01;;;;;;;604.17;560.30;;;20.50;99.90;;;;;;6188104;23;20444;-81
2023/09/24 11:53:27;;;;;;;355.40;335.58;;;20.50;99.90;;;;;;6215384;23;20020;-82
2023/09/24 11:55:55;;;;;;;832.10;775.33;;;20.60;99.90;;;;;;6213448;23;20014;-82
2023/09/24 11:58:25;;;;;;;863.72;801.78;;;20.60;99.90;;;;;;6239607;23;20091;-82
2023/09/24 12:00:52;;;;;;;497.98;469.23;;;20.70;99.90;;;;;;6245033;22;20086;-80
2023/09/24 12:03:17;;;;;;;800.08;746.40;;;20.70;99.90;;;;;;6244769;22;20020;-82
2023/09/24 12:05:46;;;;;;;499.30;469.40;;;20.70;99.90;;;;;;6245510;23;20012;-83
2023/09/24 12:08:12;;;;;;;833.33;776.88;;;20.70;99.90;;;;;;6245879;23;20391;-82
2023/09/24 12:10:40;;;;;;;595.47;539.25;;;20.90;99.90;;;;;;6246681;22;20008;-81
2023/09/24 12:13:07;;;;;;;646.80;552.88;;;20.80;99.90;;;;;;6246740;22;20496;-82
2023/09/24 12:15:34;;;;;;;715.10;665.72;;;20.70;99.90;;;;;;6247133;22;20408;-82
2023/09/24 12:18:03;;;;;;;817.22;762.58;;;20.90;99.90;;;;;;6246955;22;20515;-82
2023/09/24 12:20:29;;;;;;;844.08;786.90;;;20.90;99.90;;;;;;6247289;22;20145;-82
2023/09/24 12:22:56;;;;;;;876.78;816.30;;;20.90;99.90;;;;;;6245178;23;20020;-83